Aeroporto :
LOGIN :

Iscrizione | Disclaimer

   EN    FR    IT 

 










Sommario :    VFR   VFR Marginale   IFR   IFR Intensivo   IFR Molto Intensivo
Visibilità : 
Base nubi : 
>= 8 km
>= 3000ft
5 / 8 km
1000 / 3000 ft
1500m / 5 km
500 / 1000 ft
800 / 1500m
200 / 500 ft
< 800m
< 200 ft
Simboli :   Temporali  Nebbia  Neve Forte  Precipitazioni Forti  Vento > 20 kt
SIGMETs :   Varie  Temporali  Ghiacco  Turbolenza  Onda orograficha  Ceneri Vulcaniche






- Altitudine del aeroporto : 218 ft


EGYD - RAF Cranwell

ULTIMO METAR :
  • 181720Z AUTO 04012KT 9999 OVC036/// 16/11 Q1016

METARs OBSOLETI :
  • 181650Z 04011KT 9999 FEW026 SCT035TCU 16/12 Q1015 NOSIG RMK BLU BLU
  • 181620Z 02014KT 9999 FEW027 SCT035TCU 17/12 Q1015 NOSIG RMK BLU BLU
  • 181550Z 36009KT 9999 SCT034TCU 18/10 Q1015 TEMPO 6000 SHRA RMK BLU TEMPO WHT
  • 181520Z 33006KT 9999 FEW032 19/11 Q1015 NOSIG RMK BLU BLU
  • 181450Z 34007KT 9999 FEW031 SCT055 19/11 Q1015 NOSIG RMK BLU BLU
  • 181420Z 33006KT 9999 FEW031 BKN048 19/10 Q1015 NOSIG RMK BLU BLU
  • 181350Z 33007KT 9999 FEW034 BKN046 18/10 Q1015 NOSIG RMK BLU BLU
  • 181320Z 30007KT 9999 FEW026 BKN045 18/11 Q1015 NOSIG RMK BLU BLU

TAF TAF EGYD
Valido dal 18 a 15 ore il 18 a 19 ore UTC


181318Z 1815/1819 05010KT 9999 SCT025
PROB30
TEMPO 1815/1819 6000 SHRA SCT030CB



MetMap, La meteo Aeronautica in un colpo d'occhio ! - Copyright ORBIFLY Dicembre 2007 - Disclaimer

ORBIFLY MET'MAP TEAM :

Programmazione e sviluppo : Alexandra Zaïnal
Concezione : Baudouin d'Aumeries
Supporto tecnico e logistico : Manuel Goepfert
Aiuto : Marc-Olivier Méhu
Aiuto per la traduzione : Arnaldo La Scala




FONTI E CREDITI :

   NOAA